sensor_id;sensor_type;location;lat;lon;timestamp;temperature;humidity
31991;DHT22;18508;49.386;8.370;2022-07-29T00:02:18;20.40;1.00
31991;DHT22;18508;49.386;8.370;2022-07-29T00:04:47;20.40;1.00
31991;DHT22;18508;49.386;8.370;2022-07-29T00:07:15;20.40;1.00
31991;DHT22;18508;49.386;8.370;2022-07-29T00:09:43;20.30;1.00
31991;DHT22;18508;49.386;8.370;2022-07-29T00:12:20;20.30;1.00
31991;DHT22;18508;49.386;8.370;2022-07-29T00:14:53;20.20;1.00
31991;DHT22;18508;49.386;8.370;2022-07-29T00:17:21;20.10;1.00
31991;DHT22;18508;49.386;8.370;2022-07-29T00:19:49;20.10;1.00
31991;DHT22;18508;49.386;8.370;2022-07-29T00:22:18;20.10;1.00
31991;DHT22;18508;49.386;8.370;2022-07-29T00:24:47;20.00;1.00
31991;DHT22;18508;49.386;8.370;2022-07-29T00:27:15;20.00;1.00
31991;DHT22;18508;49.386;8.370;2022-07-29T00:29:45;20.00;1.00
31991;DHT22;18508;49.386;8.370;2022-07-29T00:32:13;19.90;1.00
31991;DHT22;18508;49.386;8.370;2022-07-29T00:34:41;19.80;1.00
31991;DHT22;18508;49.386;8.370;2022-07-29T00:37:27;19.80;1.00
31991;DHT22;18508;49.386;8.370;2022-07-29T00:39:55;19.80;1.00
31991;DHT22;18508;49.386;8.370;2022-07-29T00:42:23;19.70;1.00
31991;DHT22;18508;49.386;8.370;2022-07-29T00:44:52;19.70;1.00
31991;DHT22;18508;49.386;8.370;2022-07-29T00:47:20;19.70;1.00
31991;DHT22;18508;49.386;8.370;2022-07-29T00:49:48;19.70;1.00
31991;DHT22;18508;49.386;8.370;2022-07-29T00:52:16;19.70;1.00
31991;DHT22;18508;49.386;8.370;2022-07-29T00:54:44;19.70;1.00
31991;DHT22;18508;49.386;8.370;2022-07-29T00:57:12;19.60;1.00
31991;DHT22;18508;49.386;8.370;2022-07-29T00:59:40;19.60;1.00
31991;DHT22;18508;49.386;8.370;2022-07-29T01:02:10;19.60;1.00
31991;DHT22;18508;49.386;8.370;2022-07-29T01:04:38;19.60;1.00
31991;DHT22;18508;49.386;8.370;2022-07-29T01:07:07;19.60;1.00
31991;DHT22;18508;49.386;8.370;2022-07-29T01:09:37;19.60;1.00
31991;DHT22;18508;49.386;8.370;2022-07-29T01:12:19;19.50;1.00
31991;DHT22;18508;49.386;8.370;2022-07-29T01:14:47;19.50;1.00
31991;DHT22;18508;49.386;8.370;2022-07-29T01:17:21;19.50;1.00
31991;DHT22;18508;49.386;8.370;2022-07-29T01:19:58;19.50;1.00
31991;DHT22;18508;49.386;8.370;2022-07-29T01:22:35;19.50;1.00
31991;DHT22;18508;49.386;8.370;2022-07-29T01:25:17;19.50;1.00
31991;DHT22;18508;49.386;8.370;2022-07-29T01:28:07;19.40;1.00
31991;DHT22;18508;49.386;8.370;2022-07-29T01:30:42;19.40;1.00
31991;DHT22;18508;49.386;8.370;2022-07-29T01:33:15;19.40;1.00
31991;DHT22;18508;49.386;8.370;2022-07-29T01:36:00;19.30;1.00
31991;DHT22;18508;49.386;8.370;2022-07-29T01:38:29;19.30;1.00
31991;DHT22;18508;49.386;8.370;2022-07-29T01:41:01;19.30;1.00
31991;DHT22;18508;49.386;8.370;2022-07-29T01:43:35;19.20;1.00
31991;DHT22;18508;49.386;8.370;2022-07-29T01:46:11;19.20;1.00
31991;DHT22;18508;49.386;8.370;2022-07-29T01:48:44;19.20;1.00
31991;DHT22;18508;49.386;8.370;2022-07-29T01:51:19;19.20;1.00
31991;DHT22;18508;49.386;8.370;2022-07-29T01:53:52;19.20;1.00
31991;DHT22;18508;49.386;8.370;2022-07-29T01:56:23;19.10;1.00
31991;DHT22;18508;49.386;8.370;2022-07-29T01:58:52;19.10;1.00
31991;DHT22;18508;49.386;8.370;2022-07-29T02:01:24;19.10;1.00
31991;DHT22;18508;49.386;8.370;2022-07-29T02:03:53;19.00;1.00
31991;DHT22;18508;49.386;8.370;2022-07-29T02:06:23;19.00;1.00
31991;DHT22;18508;49.386;8.370;2022-07-29T02:08:52;18.90;1.00
31991;DHT22;18508;49.386;8.370;2022-07-29T02:11:21;18.90;1.00
31991;DHT22;18508;49.386;8.370;2022-07-29T02:13:49;18.90;1.00
31991;DHT22;18508;49.386;8.370;2022-07-29T02:16:22;18.80;1.00
31991;DHT22;18508;49.386;8.370;2022-07-29T02:18:52;18.90;1.00
31991;DHT22;18508;49.386;8.370;2022-07-29T02:21:24;18.90;1.00
31991;DHT22;18508;49.386;8.370;2022-07-29T02:23:53;18.80;1.00
31991;DHT22;18508;49.386;8.370;2022-07-29T02:26:23;18.80;1.00
31991;DHT22;18508;49.386;8.370;2022-07-29T02:28:55;18.80;1.50
31991;DHT22;18508;49.386;8.370;2022-07-29T02:31:27;18.70;6.30
31991;DHT22;18508;49.386;8.370;2022-07-29T02:33:56;18.70;3.80
31991;DHT22;18508;49.386;8.370;2022-07-29T02:36:25;19.00;14.40
31991;DHT22;18508;49.386;8.370;2022-07-29T02:38:55;18.70;5.00
31991;DHT22;18508;49.386;8.370;2022-07-29T02:41:29;18.70;10.80
31991;DHT22;18508;49.386;8.370;2022-07-29T02:44:02;18.70;9.80
31991;DHT22;18508;49.386;8.370;2022-07-29T02:46:34;18.30;23.70
31991;DHT22;18508;49.386;8.370;2022-07-29T02:49:07;18.60;25.70
31991;DHT22;18508;49.386;8.370;2022-07-29T02:51:41;18.60;9.80
31991;DHT22;18508;49.386;8.370;2022-07-29T02:54:19;18.50;25.10
31991;DHT22;18508;49.386;8.370;2022-07-29T02:56:48;18.50;19.60
31991;DHT22;18508;49.386;8.370;2022-07-29T02:59:23;18.40;26.40
31991;DHT22;18508;49.386;8.370;2022-07-29T03:01:55;18.40;76.10
31991;DHT22;18508;49.386;8.370;2022-07-29T03:04:26;18.30;99.90
31991;DHT22;18508;49.386;8.370;2022-07-29T03:06:58;18.30;1.00
31991;DHT22;18508;49.386;8.370;2022-07-29T03:09:27;18.20;1.00
31991;DHT22;18508;49.386;8.370;2022-07-29T03:11:56;18.20;1.00
31991;DHT22;18508;49.386;8.370;2022-07-29T03:14:25;18.20;99.90
31991;DHT22;18508;49.386;8.370;2022-07-29T03:16:55;18.10;99.90
31991;DHT22;18508;49.386;8.370;2022-07-29T03:19:23;18.10;59.70
31991;DHT22;18508;49.386;8.370;2022-07-29T03:21:52;18.00;52.50
31991;DHT22;18508;49.386;8.370;2022-07-29T03:24:30;18.00;52.00
31991;DHT22;18508;49.386;8.370;2022-07-29T03:26:59;18.00;48.70
31991;DHT22;18508;49.386;8.370;2022-07-29T03:29:27;18.00;48.30
31991;DHT22;18508;49.386;8.370;2022-07-29T03:32:02;17.90;49.00
31991;DHT22;18508;49.386;8.370;2022-07-29T03:34:34;17.90;52.70
31991;DHT22;18508;49.386;8.370;2022-07-29T03:37:02;17.90;60.50
31991;DHT22;18508;49.386;8.370;2022-07-29T03:39:34;17.80;59.90
31991;DHT22;18508;49.386;8.370;2022-07-29T03:42:03;17.80;67.30
31991;DHT22;18508;49.386;8.370;2022-07-29T03:44:32;17.70;65.10
31991;DHT22;18508;49.386;8.370;2022-07-29T03:47:04;17.60;68.40
31991;DHT22;18508;49.386;8.370;2022-07-29T03:49:35;17.60;72.30
31991;DHT22;18508;49.386;8.370;2022-07-29T03:52:04;17.50;72.70
31991;DHT22;18508;49.386;8.370;2022-07-29T03:54:33;17.50;74.40
31991;DHT22;18508;49.386;8.370;2022-07-29T03:57:02;17.50;75.00
31991;DHT22;18508;49.386;8.370;2022-07-29T03:59:32;17.50;77.60
31991;DHT22;18508;49.386;8.370;2022-07-29T04:02:04;17.50;73.80
31991;DHT22;18508;49.386;8.370;2022-07-29T04:04:41;17.40;74.20
31991;DHT22;18508;49.386;8.370;2022-07-29T04:07:15;17.40;72.50
31991;DHT22;18508;49.386;8.370;2022-07-29T04:09:52;17.40;72.30
31991;DHT22;18508;49.386;8.370;2022-07-29T04:12:30;17.40;77.40
31991;DHT22;18508;49.386;8.370;2022-07-29T04:15:07;17.40;82.90
31991;DHT22;18508;49.386;8.370;2022-07-29T04:17:48;17.30;75.30
31991;DHT22;18508;49.386;8.370;2022-07-29T04:20:26;17.30;75.30
31991;DHT22;18508;49.386;8.370;2022-07-29T04:22:55;17.40;72.70
31991;DHT22;18508;49.386;8.370;2022-07-29T04:25:23;17.40;70.60
31991;DHT22;18508;49.386;8.370;2022-07-29T04:27:59;17.30;67.70
31991;DHT22;18508;49.386;8.370;2022-07-29T04:30:49;17.30;66.40
31991;DHT22;18508;49.386;8.370;2022-07-29T04:33:19;17.40;67.80
31991;DHT22;18508;49.386;8.370;2022-07-29T04:35:50;17.40;65.30
31991;DHT22;18508;49.386;8.370;2022-07-29T04:38:21;17.40;62.90
31991;DHT22;18508;49.386;8.370;2022-07-29T04:40:49;17.50;78.90
31991;DHT22;18508;49.386;8.370;2022-07-29T04:43:17;17.50;65.70
31991;DHT22;18508;49.386;8.370;2022-07-29T04:45:49;17.50;76.50
31991;DHT22;18508;49.386;8.370;2022-07-29T04:48:18;17.60;62.30
31991;DHT22;18508;49.386;8.370;2022-07-29T04:50:54;18.50;61.60
31991;DHT22;18508;49.386;8.370;2022-07-29T04:53:22;17.70;56.70
31991;DHT22;18508;49.386;8.370;2022-07-29T04:55:50;17.70;55.10
31991;DHT22;18508;49.386;8.370;2022-07-29T04:58:18;17.80;49.90
31991;DHT22;18508;49.386;8.370;2022-07-29T05:00:47;17.90;46.70
31991;DHT22;18508;49.386;8.370;2022-07-29T05:03:14;18.00;44.30
31991;DHT22;18508;49.386;8.370;2022-07-29T05:05:44;18.00;40.70
31991;DHT22;18508;49.386;8.370;2022-07-29T05:08:12;18.10;37.40
31991;DHT22;18508;49.386;8.370;2022-07-29T05:10:40;18.20;30.80
31991;DHT22;18508;49.386;8.370;2022-07-29T05:13:08;18.30;29.10
31991;DHT22;18508;49.386;8.370;2022-07-29T05:15:37;18.40;27.90
31991;DHT22;18508;49.386;8.370;2022-07-29T05:18:06;18.50;27.20
31991;DHT22;18508;49.386;8.370;2022-07-29T05:20:34;18.60;26.30
31991;DHT22;18508;49.386;8.370;2022-07-29T05:23:04;18.70;25.70
31991;DHT22;18508;49.386;8.370;2022-07-29T05:25:36;18.80;21.70
31991;DHT22;18508;49.386;8.370;2022-07-29T05:28:10;18.70;20.90
31991;DHT22;18508;49.386;8.370;2022-07-29T05:30:38;19.00;19.70
31991;DHT22;18508;49.386;8.370;2022-07-29T05:33:06;19.20;16.90
31991;DHT22;18508;49.386;8.370;2022-07-29T05:35:54;19.40;16.10
31991;DHT22;18508;49.386;8.370;2022-07-29T05:38:28;19.50;13.70
31991;DHT22;18508;49.386;8.370;2022-07-29T05:40:57;19.60;13.80
31991;DHT22;18508;49.386;8.370;2022-07-29T05:43:26;19.70;11.80
31991;DHT22;18508;49.386;8.370;2022-07-29T05:45:54;19.80;10.40
31991;DHT22;18508;49.386;8.370;2022-07-29T05:48:22;19.90;7.50
31991;DHT22;18508;49.386;8.370;2022-07-29T05:50:50;20.00;7.20
31991;DHT22;18508;49.386;8.370;2022-07-29T05:53:18;20.20;4.60
31991;DHT22;18508;49.386;8.370;2022-07-29T05:55:48;20.30;10.50
31991;DHT22;18508;49.386;8.370;2022-07-29T05:58:16;20.10;8.70
31991;DHT22;18508;49.386;8.370;2022-07-29T06:00:45;20.60;2.90
31991;DHT22;18508;49.386;8.370;2022-07-29T06:03:13;20.70;8.70
31991;DHT22;18508;49.386;8.370;2022-07-29T06:05:42;21.40;7.30
31991;DHT22;18508;49.386;8.370;2022-07-29T06:08:13;21.10;1.00
31991;DHT22;18508;49.386;8.370;2022-07-29T06:10:53;21.10;4.30
31991;DHT22;18508;49.386;8.370;2022-07-29T06:13:21;21.30;1.00
31991;DHT22;18508;49.386;8.370;2022-07-29T06:15:49;21.40;1.00
31991;DHT22;18508;49.386;8.370;2022-07-29T06:18:17;21.50;1.00
31991;DHT22;18508;49.386;8.370;2022-07-29T06:20:47;21.50;1.00
31991;DHT22;18508;49.386;8.370;2022-07-29T06:23:15;21.60;1.00
31991;DHT22;18508;49.386;8.370;2022-07-29T06:25:43;21.80;1.00
31991;DHT22;18508;49.386;8.370;2022-07-29T06:28:12;21.90;1.00
31991;DHT22;18508;49.386;8.370;2022-07-29T06:30:41;21.90;1.00
31991;DHT22;18508;49.386;8.370;2022-07-29T06:33:09;21.80;1.00
31991;DHT22;18508;49.386;8.370;2022-07-29T06:35:37;22.00;1.00
31991;DHT22;18508;49.386;8.370;2022-07-29T06:38:08;22.00;1.00
31991;DHT22;18508;49.386;8.370;2022-07-29T06:40:58;21.70;7.10
31991;DHT22;18508;49.386;8.370;2022-07-29T06:43:32;22.10;1.00
31991;DHT22;18508;49.386;8.370;2022-07-29T06:46:17;22.50;2.70
31991;DHT22;18508;49.386;8.370;2022-07-29T06:48:46;22.30;2.80
31991;DHT22;18508;49.386;8.370;2022-07-29T06:51:15;22.40;2.30
31991;DHT22;18508;49.386;8.370;2022-07-29T06:53:50;22.50;1.30
31991;DHT22;18508;49.386;8.370;2022-07-29T06:56:29;22.10;9.10
31991;DHT22;18508;49.386;8.370;2022-07-29T06:58:58;22.60;2.40
31991;DHT22;18508;49.386;8.370;2022-07-29T07:01:27;22.70;2.10
31991;DHT22;18508;49.386;8.370;2022-07-29T07:03:55;22.90;5.80
31991;DHT22;18508;49.386;8.370;2022-07-29T07:06:23;23.00;7.10
31991;DHT22;18508;49.386;8.370;2022-07-29T07:08:51;23.20;7.30
31991;DHT22;18508;49.386;8.370;2022-07-29T07:11:19;23.30;8.40
31991;DHT22;18508;49.386;8.370;2022-07-29T07:13:47;23.40;6.70
31991;DHT22;18508;49.386;8.370;2022-07-29T07:16:17;23.30;10.00
31991;DHT22;18508;49.386;8.370;2022-07-29T07:18:45;23.50;9.90
31991;DHT22;18508;49.386;8.370;2022-07-29T07:21:13;23.70;11.70
31991;DHT22;18508;49.386;8.370;2022-07-29T07:23:45;24.00;12.10
31991;DHT22;18508;49.386;8.370;2022-07-29T07:26:13;24.10;13.40
31991;DHT22;18508;49.386;8.370;2022-07-29T07:28:42;24.20;11.70
31991;DHT22;18508;49.386;8.370;2022-07-29T07:31:10;24.20;10.50
31991;DHT22;18508;49.386;8.370;2022-07-29T07:33:39;24.30;11.50
31991;DHT22;18508;49.386;8.370;2022-07-29T07:36:07;24.10;13.70
31991;DHT22;18508;49.386;8.370;2022-07-29T07:38:35;24.10;13.00
31991;DHT22;18508;49.386;8.370;2022-07-29T07:41:03;23.90;18.30
31991;DHT22;18508;49.386;8.370;2022-07-29T07:43:31;24.10;11.80
31991;DHT22;18508;49.386;8.370;2022-07-29T07:45:59;24.20;11.90
31991;DHT22;18508;49.386;8.370;2022-07-29T07:48:28;24.30;12.00
31991;DHT22;18508;49.386;8.370;2022-07-29T07:50:57;24.40;9.00
31991;DHT22;18508;49.386;8.370;2022-07-29T07:53:25;24.30;7.80
31991;DHT22;18508;49.386;8.370;2022-07-29T07:55:53;24.20;8.20
31991;DHT22;18508;49.386;8.370;2022-07-29T07:58:38;24.10;8.90
31991;DHT22;18508;49.386;8.370;2022-07-29T08:01:06;24.10;9.30
31991;DHT22;18508;49.386;8.370;2022-07-29T08:03:34;23.90;10.70
31991;DHT22;18508;49.386;8.370;2022-07-29T08:06:04;23.80;10.50
31991;DHT22;18508;49.386;8.370;2022-07-29T08:08:32;23.80;12.20
31991;DHT22;18508;49.386;8.370;2022-07-29T08:11:00;23.90;11.90
31991;DHT22;18508;49.386;8.370;2022-07-29T08:13:35;24.00;12.10
31991;DHT22;18508;49.386;8.370;2022-07-29T08:16:04;24.00;10.50
31991;DHT22;18508;49.386;8.370;2022-07-29T08:18:40;24.10;10.70
31991;DHT22;18508;49.386;8.370;2022-07-29T08:21:10;24.40;8.90
31991;DHT22;18508;49.386;8.370;2022-07-29T08:23:41;24.30;8.70
31991;DHT22;18508;49.386;8.370;2022-07-29T08:26:24;24.40;9.90
31991;DHT22;18508;49.386;8.370;2022-07-29T08:28:52;24.70;6.80
31991;DHT22;18508;49.386;8.370;2022-07-29T08:31:20;24.90;6.30
31991;DHT22;18508;49.386;8.370;2022-07-29T08:33:48;25.20;4.60
31991;DHT22;18508;49.386;8.370;2022-07-29T08:36:18;25.30;4.40
31991;DHT22;18508;49.386;8.370;2022-07-29T08:38:47;25.60;2.20
31991;DHT22;18508;49.386;8.370;2022-07-29T08:41:16;25.70;1.00
31991;DHT22;18508;49.386;8.370;2022-07-29T08:43:45;25.80;1.00
31991;DHT22;18508;49.386;8.370;2022-07-29T08:46:13;25.90;1.00
31991;DHT22;18508;49.386;8.370;2022-07-29T08:48:41;26.20;1.00
31991;DHT22;18508;49.386;8.370;2022-07-29T08:51:13;26.40;1.00
31991;DHT22;18508;49.386;8.370;2022-07-29T08:53:44;26.50;1.00
31991;DHT22;18508;49.386;8.370;2022-07-29T08:56:12;26.30;1.00
31991;DHT22;18508;49.386;8.370;2022-07-29T08:58:41;26.20;1.00
31991;DHT22;18508;49.386;8.370;2022-07-29T09:01:16;26.20;1.00
31991;DHT22;18508;49.386;8.370;2022-07-29T09:03:46;26.20;1.00
31991;DHT22;18508;49.386;8.370;2022-07-29T09:06:15;26.40;1.00
31991;DHT22;18508;49.386;8.370;2022-07-29T09:08:46;26.10;1.00
31991;DHT22;18508;49.386;8.370;2022-07-29T09:11:16;25.80;1.00
31991;DHT22;18508;49.386;8.370;2022-07-29T09:13:44;25.80;1.00
31991;DHT22;18508;49.386;8.370;2022-07-29T09:16:13;25.80;1.00
31991;DHT22;18508;49.386;8.370;2022-07-29T09:19:01;25.80;1.00
31991;DHT22;18508;49.386;8.370;2022-07-29T09:21:40;26.00;1.00
31991;DHT22;18508;49.386;8.370;2022-07-29T09:24:42;26.20;1.00
31991;DHT22;18508;49.386;8.370;2022-07-29T09:27:21;26.20;1.00
31991;DHT22;18508;49.386;8.370;2022-07-29T09:30:00;26.30;1.00
31991;DHT22;18508;49.386;8.370;2022-07-29T09:32:29;26.30;1.00
31991;DHT22;18508;49.386;8.370;2022-07-29T09:35:17;26.30;1.00
31991;DHT22;18508;49.386;8.370;2022-07-29T09:37:46;26.50;1.00
31991;DHT22;18508;49.386;8.370;2022-07-29T09:40:17;26.70;1.00
31991;DHT22;18508;49.386;8.370;2022-07-29T09:42:46;26.90;1.00
31991;DHT22;18508;49.386;8.370;2022-07-29T09:45:27;26.90;1.00
31991;DHT22;18508;49.386;8.370;2022-07-29T09:47:56;27.10;1.00
31991;DHT22;18508;49.386;8.370;2022-07-29T09:50:38;27.10;1.00
31991;DHT22;18508;49.386;8.370;2022-07-29T09:53:06;27.20;1.00
31991;DHT22;18508;49.386;8.370;2022-07-29T09:55:47;27.50;1.00
31991;DHT22;18508;49.386;8.370;2022-07-29T09:58:18;27.40;1.00
31991;DHT22;18508;49.386;8.370;2022-07-29T10:00:47;27.40;1.00
31991;DHT22;18508;49.386;8.370;2022-07-29T10:03:16;27.40;1.00
31991;DHT22;18508;49.386;8.370;2022-07-29T10:05:45;27.50;1.00
31991;DHT22;18508;49.386;8.370;2022-07-29T10:08:13;27.60;1.00
31991;DHT22;18508;49.386;8.370;2022-07-29T10:10:42;27.90;1.00
31991;DHT22;18508;49.386;8.370;2022-07-29T10:13:13;27.80;1.00
31991;DHT22;18508;49.386;8.370;2022-07-29T10:15:43;27.70;1.00
31991;DHT22;18508;49.386;8.370;2022-07-29T10:18:14;28.00;1.00
31991;DHT22;18508;49.386;8.370;2022-07-29T10:20:44;28.20;1.00
31991;DHT22;18508;49.386;8.370;2022-07-29T10:23:12;28.50;1.00
31991;DHT22;18508;49.386;8.370;2022-07-29T10:25:40;28.50;1.00
31991;DHT22;18508;49.386;8.370;2022-07-29T10:28:13;28.40;1.00
31991;DHT22;18508;49.386;8.370;2022-07-29T10:30:43;28.30;1.00
31991;DHT22;18508;49.386;8.370;2022-07-29T10:33:21;28.40;1.00
31991;DHT22;18508;49.386;8.370;2022-07-29T10:36:02;28.50;1.00
31991;DHT22;18508;49.386;8.370;2022-07-29T10:38:43;28.60;1.00
31991;DHT22;18508;49.386;8.370;2022-07-29T10:41:59;28.70;1.00
31991;DHT22;18508;49.386;8.370;2022-07-29T10:44:32;28.60;1.00
31991;DHT22;18508;49.386;8.370;2022-07-29T10:47:01;28.60;1.00
31991;DHT22;18508;49.386;8.370;2022-07-29T10:49:29;28.70;1.00
31991;DHT22;18508;49.386;8.370;2022-07-29T10:52:03;28.60;1.00
31991;DHT22;18508;49.386;8.370;2022-07-29T10:54:46;28.20;1.00
31991;DHT22;18508;49.386;8.370;2022-07-29T10:57:19;28.60;1.00
31991;DHT22;18508;49.386;8.370;2022-07-29T11:00:29;28.60;1.00
31991;DHT22;18508;49.386;8.370;2022-07-29T11:02:59;28.70;1.00
31991;DHT22;18508;49.386;8.370;2022-07-29T11:05:51;28.90;1.00
31991;DHT22;18508;49.386;8.370;2022-07-29T11:08:24;28.70;1.00
31991;DHT22;18508;49.386;8.370;2022-07-29T11:14:03;29.30;1.00
31991;DHT22;18508;49.386;8.370;2022-07-29T11:17:00;29.70;1.00
31991;DHT22;18508;49.386;8.370;2022-07-29T11:19:33;29.40;1.00
31991;DHT22;18508;49.386;8.370;2022-07-29T11:22:08;29.60;1.00
31991;DHT22;18508;49.386;8.370;2022-07-29T11:24:36;29.10;1.00
31991;DHT22;18508;49.386;8.370;2022-07-29T11:27:17;29.10;1.00
31991;DHT22;18508;49.386;8.370;2022-07-29T11:29:54;29.40;1.00
31991;DHT22;18508;49.386;8.370;2022-07-29T11:32:36;29.70;1.00
31991;DHT22;18508;49.386;8.370;2022-07-29T11:35:16;30.10;1.00
31991;DHT22;18508;49.386;8.370;2022-07-29T11:38:23;30.10;1.00
31991;DHT22;18508;49.386;8.370;2022-07-29T11:41:21;30.40;1.00
31991;DHT22;18508;49.386;8.370;2022-07-29T11:43:52;30.70;1.00
31991;DHT22;18508;49.386;8.370;2022-07-29T11:46:45;30.50;1.00
31991;DHT22;18508;49.386;8.370;2022-07-29T11:49:19;30.40;1.00
31991;DHT22;18508;49.386;8.370;2022-07-29T11:51:58;30.30;1.00
31991;DHT22;18508;49.386;8.370;2022-07-29T11:54:31;30.20;1.00
31991;DHT22;18508;49.386;8.370;2022-07-29T11:57:19;30.20;1.00
31991;DHT22;18508;49.386;8.370;2022-07-29T11:59:48;30.40;1.00
31991;DHT22;18508;49.386;8.370;2022-07-29T12:02:16;30.50;1.00
31991;DHT22;18508;49.386;8.370;2022-07-29T12:05:06;30.60;1.00
31991;DHT22;18508;49.386;8.370;2022-07-29T12:07:38;30.80;1.00
31991;DHT22;18508;49.386;8.370;2022-07-29T12:10:11;31.20;1.00
31991;DHT22;18508;49.386;8.370;2022-07-29T12:12:55;31.20;1.00
31991;DHT22;18508;49.386;8.370;2022-07-29T12:15:24;30.90;1.00
31991;DHT22;18508;49.386;8.370;2022-07-29T12:18:15;30.50;1.00
31991;DHT22;18508;49.386;8.370;2022-07-29T12:20:46;30.30;1.00
31991;DHT22;18508;49.386;8.370;2022-07-29T12:23:15;29.90;1.00
31991;DHT22;18508;49.386;8.370;2022-07-29T12:25:44;30.50;1.00
31991;DHT22;18508;49.386;8.370;2022-07-29T12:28:15;30.60;1.00
31991;DHT22;18508;49.386;8.370;2022-07-29T12:30:53;30.50;1.00
31991;DHT22;18508;49.386;8.370;2022-07-29T12:33:22;30.50;1.00
31991;DHT22;18508;49.386;8.370;2022-07-29T12:35:53;30.60;1.00
31991;DHT22;18508;49.386;8.370;2022-07-29T12:38:33;30.60;1.00
31991;DHT22;18508;49.386;8.370;2022-07-29T12:41:02;30.30;1.00
31991;DHT22;18508;49.386;8.370;2022-07-29T12:43:30;30.20;1.00
31991;DHT22;18508;49.386;8.370;2022-07-29T12:46:12;30.20;1.00
31991;DHT22;18508;49.386;8.370;2022-07-29T12:48:42;30.00;1.00
31991;DHT22;18508;49.386;8.370;2022-07-29T12:51:12;30.10;1.00
31991;DHT22;18508;49.386;8.370;2022-07-29T12:53:41;30.00;1.00
31991;DHT22;18508;49.386;8.370;2022-07-29T12:56:15;30.30;1.00
31991;DHT22;18508;49.386;8.370;2022-07-29T12:59:12;30.30;1.00
31991;DHT22;18508;49.386;8.370;2022-07-29T13:01:40;30.10;1.00
31991;DHT22;18508;49.386;8.370;2022-07-29T13:04:08;30.10;1.00
31991;DHT22;18508;49.386;8.370;2022-07-29T13:06:39;29.80;1.00
31991;DHT22;18508;49.386;8.370;2022-07-29T13:09:12;30.20;1.00
31991;DHT22;18508;49.386;8.370;2022-07-29T13:11:42;30.30;1.00
31991;DHT22;18508;49.386;8.370;2022-07-29T13:14:29;30.90;1.00
31991;DHT22;18508;49.386;8.370;2022-07-29T13:17:03;30.60;1.00
31991;DHT22;18508;49.386;8.370;2022-07-29T13:19:39;30.80;1.00
31991;DHT22;18508;49.386;8.370;2022-07-29T13:22:10;30.40;1.00
31991;DHT22;18508;49.386;8.370;2022-07-29T13:24:48;30.50;1.00
31991;DHT22;18508;49.386;8.370;2022-07-29T13:27:18;30.60;1.00
31991;DHT22;18508;49.386;8.370;2022-07-29T13:29:46;30.70;1.00
31991;DHT22;18508;49.386;8.370;2022-07-29T13:32:15;30.90;1.00
31991;DHT22;18508;49.386;8.370;2022-07-29T13:34:43;31.00;1.00
31991;DHT22;18508;49.386;8.370;2022-07-29T13:37:13;31.10;1.00
31991;DHT22;18508;49.386;8.370;2022-07-29T13:39:41;31.20;1.00
31991;DHT22;18508;49.386;8.370;2022-07-29T13:42:18;31.30;1.00
31991;DHT22;18508;49.386;8.370;2022-07-29T13:44:47;31.70;1.00
31991;DHT22;18508;49.386;8.370;2022-07-29T13:47:17;31.80;1.00
31991;DHT22;18508;49.386;8.370;2022-07-29T13:49:45;32.00;1.00
31991;DHT22;18508;49.386;8.370;2022-07-29T13:52:15;31.80;1.00
31991;DHT22;18508;49.386;8.370;2022-07-29T13:54:43;31.80;1.00
31991;DHT22;18508;49.386;8.370;2022-07-29T13:57:13;31.80;1.00
31991;DHT22;18508;49.386;8.370;2022-07-29T13:59:42;31.70;1.00
31991;DHT22;18508;49.386;8.370;2022-07-29T14:02:10;31.60;1.00
31991;DHT22;18508;49.386;8.370;2022-07-29T14:04:41;31.30;1.00
31991;DHT22;18508;49.386;8.370;2022-07-29T14:07:09;31.20;1.00
31991;DHT22;18508;49.386;8.370;2022-07-29T14:09:43;31.20;1.00
31991;DHT22;18508;49.386;8.370;2022-07-29T14:12:11;31.40;1.00
31991;DHT22;18508;49.386;8.370;2022-07-29T14:14:39;31.80;1.00
31991;DHT22;18508;49.386;8.370;2022-07-29T14:17:08;32.20;1.00
31991;DHT22;18508;49.386;8.370;2022-07-29T14:19:37;32.20;1.00
31991;DHT22;18508;49.386;8.370;2022-07-29T14:22:06;32.20;1.00
31991;DHT22;18508;49.386;8.370;2022-07-29T14:24:37;32.40;1.00
31991;DHT22;18508;49.386;8.370;2022-07-29T14:27:07;32.50;1.00
31991;DHT22;18508;49.386;8.370;2022-07-29T14:29:35;32.50;1.00
31991;DHT22;18508;49.386;8.370;2022-07-29T14:32:05;32.60;1.00
31991;DHT22;18508;49.386;8.370;2022-07-29T14:34:34;32.50;1.00
31991;DHT22;18508;49.386;8.370;2022-07-29T14:37:02;32.70;1.00
31991;DHT22;18508;49.386;8.370;2022-07-29T14:39:32;32.90;1.00
31991;DHT22;18508;49.386;8.370;2022-07-29T14:42:09;32.80;1.00
31991;DHT22;18508;49.386;8.370;2022-07-29T14:44:38;33.10;1.00
31991;DHT22;18508;49.386;8.370;2022-07-29T14:47:07;33.40;1.00
31991;DHT22;18508;49.386;8.370;2022-07-29T14:49:36;33.10;1.00
31991;DHT22;18508;49.386;8.370;2022-07-29T14:52:04;33.40;1.00
31991;DHT22;18508;49.386;8.370;2022-07-29T14:54:33;33.80;1.00
31991;DHT22;18508;49.386;8.370;2022-07-29T14:59:31;33.50;1.00
31991;DHT22;18508;49.386;8.370;2022-07-29T15:01:59;33.30;1.00
31991;DHT22;18508;49.386;8.370;2022-07-29T15:04:28;32.10;1.00
31991;DHT22;18508;49.386;8.370;2022-07-29T15:06:57;32.20;1.00
31991;DHT22;18508;49.386;8.370;2022-07-29T15:09:31;32.80;1.00
31991;DHT22;18508;49.386;8.370;2022-07-29T15:12:15;32.50;1.00
31991;DHT22;18508;49.386;8.370;2022-07-29T15:14:45;33.10;1.00
31991;DHT22;18508;49.386;8.370;2022-07-29T15:17:14;33.50;1.00
31991;DHT22;18508;49.386;8.370;2022-07-29T15:19:42;34.60;1.00
31991;DHT22;18508;49.386;8.370;2022-07-29T15:22:15;34.20;1.00
31991;DHT22;18508;49.386;8.370;2022-07-29T15:24:47;34.40;1.00
31991;DHT22;18508;49.386;8.370;2022-07-29T15:27:15;34.20;1.00
31991;DHT22;18508;49.386;8.370;2022-07-29T15:29:47;33.60;1.00
31991;DHT22;18508;49.386;8.370;2022-07-29T15:32:18;33.50;1.00
31991;DHT22;18508;49.386;8.370;2022-07-29T15:34:49;34.00;1.00
31991;DHT22;18508;49.386;8.370;2022-07-29T15:37:17;34.80;1.00
31991;DHT22;18508;49.386;8.370;2022-07-29T15:39:45;34.90;1.00
31991;DHT22;18508;49.386;8.370;2022-07-29T15:42:14;35.90;1.00
31991;DHT22;18508;49.386;8.370;2022-07-29T15:44:45;35.80;1.00
31991;DHT22;18508;49.386;8.370;2022-07-29T15:47:13;36.20;1.00
31991;DHT22;18508;49.386;8.370;2022-07-29T15:49:42;36.60;99.90
31991;DHT22;18508;49.386;8.370;2022-07-29T15:52:17;37.40;99.90
31991;DHT22;18508;49.386;8.370;2022-07-29T15:54:53;36.80;99.90
31991;DHT22;18508;49.386;8.370;2022-07-29T15:57:21;35.50;99.90
31991;DHT22;18508;49.386;8.370;2022-07-29T15:59:51;35.00;99.90
31991;DHT22;18508;49.386;8.370;2022-07-29T16:02:19;34.50;99.90
31991;DHT22;18508;49.386;8.370;2022-07-29T16:04:48;34.40;99.90
31991;DHT22;18508;49.386;8.370;2022-07-29T16:07:16;33.90;99.90
31991;DHT22;18508;49.386;8.370;2022-07-29T16:09:44;34.30;99.90
31991;DHT22;18508;49.386;8.370;2022-07-29T16:12:18;34.10;99.90
31991;DHT22;18508;49.386;8.370;2022-07-29T16:14:46;35.50;99.90
31991;DHT22;18508;49.386;8.370;2022-07-29T16:17:18;36.70;99.90
31991;DHT22;18508;49.386;8.370;2022-07-29T16:19:46;36.90;99.90